Latest Weather Observations for The Monument

IDQ60801

Issued at 9:22 am EST Tuesday 7 December 2021 (issued every 10 minutes, with the page automatically refreshed every 10 minutes)

About weather observations | Map of weather stations | Latest weather observations for QLD | Other Formats
Station Details ID: 037034 Name: THE MONUMENT AIRPORT Lat: -21.81 Lon: 139.93 Height: 288.4 m
Data from the previous 72 hours. | See also: Recent months at The Monument
Date/Time
EST
Temp
°C
App
Temp
°C
Dew
Point
°C
Rel
Hum
%
Delta-T
°C
Wind Press
QNH
hPa
Press
MSL
hPa
Rain since
9am
mm
Dir  Spd
km/h
Gust
km/h
Spd
kts
Gust
kts
07/09:00am 26.1 26.1 17.2 58 5.6 W 13 15 7 8 1013.7 1011.4 -
07/08:30am 26.1 26.6 17.5 59 5.4 NNW 11 13 6 7 1013.5 1011.2 -
07/08:00am 24.8 25.3 17.5 64 4.6 NNE 11 15 6 8 1012.8 1010.6 -
07/07:30am 23.7 25.1 17.4 68 4.0 SSW 6 9 3 5 1012.7 1010.5 -
07/07:00am 23.0 24.1 16.5 67 4.0 NW 6 7 3 4 1012.5 1010.3 -
07/06:30am 22.2 23.0 17.3 74 3.1 NNW 9 9 5 5 1012.0 1009.8 -
07/06:00am 22.2 23.3 17.1 73 3.2 S 7 11 4 6 1011.5 1009.3 -
07/05:30am 22.4 21.4 15.7 66 4.1 ENE 15 17 8 9 1010.7 1008.4 -
07/05:00am 21.7 22.0 16.0 70 3.5 NNE 9 13 5 7 1010.5 1008.2 -
07/04:30am 22.1 22.0 15.0 64 4.3 NE 9 17 5 9 1010.4 1008.1 -
07/04:00am 22.4 20.5 14.3 60 4.8 E 17 26 9 14 1009.9 1007.6 -
07/03:30am 21.5 18.6 15.1 67 3.8 ESE 24 32 13 17 1010.3 1008.0 -
07/03:00am 20.6 19.0 16.6 78 2.5 SE 20 26 11 14 1011.5 1009.3 23.0
07/02:30am 20.6 19.8 17.0 80 2.2 SSE 17 22 9 12 1012.6 1010.4 -
07/02:00am 20.8 19.1 18.0 84 1.8 SSE 24 35 13 19 1013.2 1010.9 -
07/01:30am 20.9 19.8 18.7 87 1.4 S 22 30 12 16 1013.8 1011.5 -
07/01:23am 20.9 20.3 18.5 86 1.5 SSW 19 30 10 16 1014.4 1012.2 -
07/01:00am 20.9 18.5 19.0 89 1.2 SSW 30 43 16 23 1014.1 1011.8 -
07/12:47am 20.8 18.4 19.1 90 1.1 S 30 41 16 22 1013.9 1011.6 -
07/12:30am 20.7 17.2 18.8 89 1.2 SSW 35 46 19 25 1013.5 1011.2 -
07/12:00am 20.9 20.0 19.0 89 1.2 S 22 35 12 19 1014.0 1011.7 -
 
Date/Time
EST
Temp
°C
App
Temp
°C
Dew
Point
°C
Rel
Hum
%
Delta-T
°C
Wind Press
QNH
hPa
Press
MSL
hPa
Rain since
9am
mm
Dir  Spd
km/h
Gust
km/h
Spd
kts
Gust
kts
06/11:37pm 21.1 20.3 19.2 89 1.2 SE 22 35 12 19 1015.1 1012.9 -
06/11:30pm 21.3 20.3 18.9 86 1.5 ESE 22 37 12 20 1014.5 1012.3 -
06/11:06pm 21.8 19.5 19.4 86 1.5 SSW 30 46 16 25 1012.7 1010.5 -
06/11:00pm 22.1 19.2 19.3 84 1.8 SW 33 52 18 28 1012.6 1010.4 -
06/10:56pm 22.6 19.9 19.2 81 2.2 SW 32 52 17 28 1012.2 1010.0 -
06/10:52pm 23.5 21.1 19.0 76 2.9 WSW 30 46 16 25 1011.6 1009.4 -
06/10:49pm 24.5 22.5 19.1 72 3.5 W 28 37 15 20 1011.0 1008.8 -
06/10:30pm 28.4 24.8 17.3 51 7.1 WNW 32 41 17 22 1010.0 1007.7 -
06/10:24pm 29.5 26.5 16.7 46 8.1 WNW 28 39 15 21 1010.2 1007.9 -
06/10:00pm 30.5 31.0 15.0 39 9.6 NNW 6 9 3 5 1009.3 1007.1 -
06/09:53pm 30.4 30.7 14.9 39 9.6 NNW 7 11 4 6 1009.2 1007.0 -
06/09:30pm 30.3 30.9 15.2 40 9.4 N 6 9 3 5 1008.9 1006.7 -
06/09:00pm 30.7 32.4 15.2 39 9.7 CALM 0 6 0 3 1008.7 1006.5 -
06/08:30pm 31.0 31.2 14.6 37 10.1 NNW 7 9 4 5 1008.4 1006.2 -
06/08:00pm 31.0 30.9 15.0 38 10.0 NNW 9 11 5 6 1007.9 1005.7 -
06/07:30pm 31.3 31.8 14.9 37 10.2 N 6 9 3 5 1007.4 1005.1 -
06/07:00pm 32.1 31.9 14.7 35 10.8 N 9 17 5 9 1007.3 1005.0 -
06/06:30pm 32.1 30.5 15.1 35 10.6 NNW 17 24 9 13 1007.3 1005.0 -
06/06:00pm 32.5 30.8 14.6 34 11.1 N 17 26 9 14 1007.2 1004.9 -
06/05:30pm 35.7 34.1 13.8 27 13.6 ENE 15 26 8 14 1007.0 1004.7 -
06/05:00pm 35.3 34.7 13.5 27 13.5 E 9 22 5 12 1006.9 1004.6 -
06/04:30pm - - - - - ESE 6 6 3 3 - - -
06/04:00pm 34.8 34.4 13.0 26 13.4 N 7 13 4 7 1007.4 1005.1 0.0
06/03:30pm 34.6 34.5 14.0 29 12.8 E 7 13 4 7 1007.7 1005.4 0.0
06/03:00pm 34.6 33.4 14.0 29 12.8 ENE 13 20 7 11 1007.9 1005.7 0.0
06/02:30pm 34.5 33.3 13.9 29 12.7 NE 13 22 7 12 1008.0 1005.8 0.0
06/02:00pm 35.4 33.9 14.1 28 13.3 NE 15 30 8 16 1008.3 1006.1 0.0
06/01:30pm 34.0 32.0 14.0 30 12.4 NNE 17 30 9 16 1008.9 1006.7 0.0
06/01:00pm 34.1 32.7 14.6 31 12.2 NNE 15 28 8 15 1009.5 1007.2 0.0
06/12:30pm 32.9 31.1 14.5 33 11.4 NNE 17 28 9 15 1010.2 1007.9 0.0
06/12:00pm 32.3 30.1 14.9 35 10.8 NE 20 33 11 18 1010.6 1008.3 0.0
06/11:30am 32.4 30.1 15.8 36 10.5 NE 22 30 12 16 1010.9 1008.6 0.0
06/11:00am 30.9 29.0 15.7 39 9.5 NE 20 32 11 17 1011.5 1009.3 0.0
06/10:30am 29.5 27.5 15.6 43 8.7 NE 20 30 11 16 1011.9 1009.7 0.0
06/10:00am 30.2 27.6 15.9 42 9.0 NE 24 33 13 18 1012.2 1010.0 0.0
06/09:30am 28.9 27.7 16.1 46 8.0 NNE 17 26 9 14 1012.4 1010.2 0.0
06/09:00am 28.2 27.2 16.5 49 7.4 NNE 17 28 9 15 1012.6 1010.4 0.2
06/08:30am 27.8 26.2 16.1 49 7.3 NNE 19 30 10 16 1012.7 1010.5 0.2
06/08:00am 26.8 26.5 16.4 53 6.5 N 13 20 7 11 1012.1 1009.9 0.0
06/07:30am 25.3 24.0 15.9 56 5.8 NNE 17 24 9 13 1011.9 1009.7 0.0
06/07:00am 25.4 25.3 16.0 56 5.8 NE 11 17 6 9 1011.3 1009.1 0.0
06/06:30am 24.8 25.1 16.0 58 5.4 E 9 11 5 6 1010.8 1008.5 0.0
06/06:00am 23.7 23.3 15.2 59 5.2 E 11 13 6 7 1010.3 1008.0 0.0
06/05:30am 23.9 23.9 15.1 58 5.3 NE 9 11 5 6 1009.8 1007.5 0.0
06/05:00am 24.2 23.4 15.1 56 5.5 NE 13 17 7 9 1009.3 1007.1 0.0
06/04:30am 24.0 21.5 15.2 58 5.3 E 22 33 12 18 1008.6 1006.4 0.0
06/04:00am 23.6 22.8 16.1 62 4.6 ENE 15 26 8 14 1008.9 1006.7 0.0
06/03:30am 24.4 23.8 15.6 58 5.4 ENE 13 22 7 12 1009.6 1007.3 0.0
06/03:00am 24.4 22.9 15.3 57 5.5 ENE 17 30 9 16 1009.1 1006.9 0.0
06/02:30am 24.8 22.7 15.1 54 5.9 E 20 28 11 15 1009.3 1007.1 0.0
06/02:00am 24.8 22.9 15.7 57 5.6 ESE 20 30 11 16 1009.9 1007.6 0.0
06/01:30am 25.2 22.8 15.5 55 5.9 ESE 22 35 12 19 1010.5 1008.2 0.0
06/01:00am 25.5 22.3 15.2 53 6.3 SE 26 37 14 20 1011.2 1009.0 0.0
06/12:30am 25.6 22.4 15.3 53 6.3 SSE 26 35 14 19 1011.5 1009.3 0.0
06/12:00am 25.2 21.9 16.1 57 5.6 SSE 28 43 15 23 1012.2 1010.0 0.0
 
Date/Time
EST
Temp
°C
App
Temp
°C
Dew
Point
°C
Rel
Hum
%
Delta-T
°C
Wind Press
QNH
hPa
Press
MSL
hPa
Rain since
9am
mm
Dir  Spd
km/h
Gust
km/h
Spd
kts
Gust
kts
05/11:38pm 25.2 22.1 16.6 59 5.4 SE 28 46 15 25 1012.7 1010.5 0.0
05/11:30pm 25.2 22.2 16.9 60 5.2 SSE 28 39 15 21 1012.8 1010.6 0.0
05/11:00pm 25.7 23.3 16.3 56 5.8 SSE 24 39 13 21 1012.8 1010.6 0.0
05/10:30pm 25.9 24.0 16.7 57 5.8 SSE 22 32 12 17 1012.9 1010.7 0.0
05/10:00pm 25.7 26.1 18.1 63 4.9 SSE 13 20 7 11 1012.1 1009.9 0.0
05/09:30pm 26.8 25.3 16.4 53 6.5 SSW 19 26 10 14 1011.3 1009.1 0.0
05/09:00pm 26.6 22.4 17.1 56 6.0 SSW 35 54 19 29 1009.7 1007.4 0.0
05/08:48pm 29.0 26.4 14.8 42 8.7 SSE 22 59 12 32 1009.1 1006.9 0.0
05/08:46pm 30.7 28.6 13.5 35 10.4 SSE 17 44 9 24 1009.2 1007.0 0.0
05/08:30pm 31.3 30.1 11.7 30 11.6 ESE 9 13 5 7 1008.0 1005.8 0.0
05/08:00pm 31.0 27.8 11.9 31 11.3 SSW 20 26 11 14 1008.1 1005.9 0.0
05/07:47pm 30.7 27.2 12.1 32 11.0 SSW 22 33 12 18 1008.0 1005.8 0.0
05/07:37pm 30.4 28.0 13.7 36 10.1 SSW 19 24 10 13 1008.0 1005.8 0.0
05/07:30pm 30.5 28.1 13.7 35 10.2 SSW 19 28 10 15 1008.0 1005.8 0.0
05/07:13pm 30.0 27.5 14.1 37 9.7 SW 20 28 11 15 1007.9 1005.7 0.0
05/07:00pm 29.6 28.3 15.7 43 8.7 S 17 24 9 13 1007.4 1005.1 0.0
05/06:45pm 30.2 29.7 16.9 44 8.5 SSW 15 32 8 17 1006.9 1004.6 0.0
05/06:30pm 35.3 30.3 11.0 23 14.4 SSE 28 46 15 25 1006.7 1004.4 0.0
05/06:22pm 36.0 30.8 10.2 21 15.2 SE 28 46 15 25 1006.2 1003.9 0.0
05/06:18pm 36.3 31.9 10.5 21 15.3 SE 24 35 13 19 1005.8 1003.5 0.0
05/06:09pm 36.8 33.1 10.2 20 15.7 ESE 20 28 11 15 1005.4 1003.2 0.0
05/06:00pm 37.5 34.5 9.2 18 16.6 E 15 24 8 13 1005.1 1002.9 0.0
05/05:30pm 37.7 33.6 8.5 17 16.9 E 20 28 11 15 1004.8 1002.6 0.0
05/05:29pm 37.7 33.6 8.5 17 16.9 E 20 28 11 15 1004.8 1002.6 0.0
05/05:00pm 39.2 37.3 6.8 14 18.5 NE 6 11 3 6 1004.7 1002.5 0.0
05/04:30pm 39.2 36.8 8.8 16 17.8 NE 11 15 6 8 1004.9 1002.7 0.0
05/04:00pm 38.8 36.4 8.5 16 17.7 NNE 11 15 6 8 1005.3 1003.1 0.0
05/03:30pm 40.8 38.5 9.1 15 18.7 SE 11 20 6 11 1005.6 1003.4 0.0
05/03:00pm 40.5 38.7 7.8 14 19.0 SW 7 17 4 9 1006.2 1003.9 0.0
05/02:30pm 40.1 37.2 9.5 16 18.1 NNE 15 30 8 16 1006.7 1004.4 0.0
05/02:00pm 40.8 38.1 9.1 15 18.8 NE 13 22 7 12 1007.1 1004.8 0.0
05/01:30pm 39.6 36.9 9.1 16 17.9 NE 13 26 7 14 1007.7 1005.4 0.0
05/01:00pm 39.9 37.9 10.2 17 17.8 NNE 11 22 6 12 1008.1 1005.9 0.0
05/12:30pm 38.8 35.8 9.4 17 17.3 N 15 26 8 14 1008.6 1006.4 0.0
05/12:00pm 38.5 35.5 10.8 19 16.7 NE 17 37 9 20 1009.1 1006.9 0.0
05/11:30am 38.4 35.6 11.5 20 16.3 NE 17 35 9 19 1009.7 1007.4 0.0
05/11:00am 38.2 36.0 12.0 21 16.0 NE 15 20 8 11 1010.1 1007.8 0.0
05/10:30am 36.7 33.9 11.5 22 15.2 NE 17 26 9 14 1010.6 1008.3 0.0
05/10:00am 36.7 33.7 10.8 21 15.5 NE 17 28 9 15 1010.8 1008.5 0.0
05/09:30am 35.9 32.0 10.9 22 14.9 E 22 32 12 17 1010.9 1008.6 0.0
05/09:00am 35.4 32.0 11.1 23 14.5 E 20 30 11 16 1011.0 1008.8 0.0
05/08:30am 34.9 31.7 11.3 24 14.1 ENE 19 26 10 14 1011.1 1008.9 0.0
05/08:00am 33.4 30.0 10.7 25 13.3 E 19 26 10 14 1010.9 1008.6 0.0
05/07:30am 32.4 31.0 11.0 27 12.6 ENE 9 17 5 9 1010.8 1008.5 0.0
05/07:00am 29.1 28.9 10.3 31 10.8 N 2 7 1 4 1010.6 1008.3 0.0
05/06:30am 28.0 26.2 9.3 31 10.5 ENE 9 9 5 5 1010.2 1007.9 0.0
05/06:00am 27.8 25.8 8.6 30 10.6 E 9 11 5 6 1009.9 1007.6 0.0
05/05:30am 27.9 25.4 8.2 29 10.8 ESE 11 15 6 8 1009.8 1007.5 0.0
05/05:00am 27.2 25.1 8.1 30 10.5 SE 9 11 5 6 1009.6 1007.3 0.0
05/04:30am 28.3 26.2 8.1 28 11.1 ESE 9 11 5 6 1009.2 1007.0 0.0
05/04:00am 28.9 26.4 8.0 27 11.5 SE 11 15 6 8 1009.2 1007.0 0.0
05/03:30am 28.6 26.5 8.3 28 11.2 E 9 15 5 8 1008.9 1006.7 0.0
05/03:00am 29.2 26.6 7.7 26 11.8 SE 11 13 6 7 1009.0 1006.8 0.0
05/02:30am 29.7 27.1 7.6 25 12.1 S 11 13 6 7 1008.8 1006.6 0.0
05/02:00am 31.3 28.7 7.7 23 13.1 E 11 15 6 8 1009.0 1006.8 0.0
05/01:30am 30.5 27.5 7.7 24 12.6 E 13 19 7 10 1009.3 1007.1 0.0
05/01:00am 29.9 27.5 7.2 24 12.4 SSE 9 11 5 6 1009.3 1007.1 0.0
05/12:30am 30.2 27.9 7.4 24 12.5 SSE 9 11 5 6 1009.7 1007.4 0.0
05/12:00am 30.7 28.3 7.2 23 12.9 SE 9 11 5 6 1009.9 1007.6 0.0
 
Date/Time
EST
Temp
°C
App
Temp
°C
Dew
Point
°C
Rel
Hum
%
Delta-T
°C
Wind Press
QNH
hPa
Press
MSL
hPa
Rain since
9am
mm
Dir  Spd
km/h
Gust
km/h
Spd
kts
Gust
kts
04/11:30pm 31.8 28.4 6.1 20 13.9 SSE 13 17 7 9 1010.2 1007.9 0.0
04/11:00pm 31.4 28.5 6.5 21 13.6 SE 11 15 6 8 1010.1 1007.8 0.0
04/10:30pm 31.4 28.1 6.5 21 13.6 E 13 15 7 8 1010.0 1007.7 0.0
04/10:00pm 31.4 28.9 6.5 21 13.6 ENE 9 11 5 6 1009.9 1007.6 0.0
04/09:30pm 32.8 30.0 6.9 20 14.3 SE 11 15 6 8 1009.5 1007.2 0.0
04/09:00pm 34.1 30.8 6.4 18 15.3 SE 13 15 7 8 1009.2 1007.0 0.0
04/08:30pm 34.7 31.3 6.1 17 15.7 ESE 13 17 7 9 1009.0 1006.8 0.0
04/08:00pm 35.3 31.9 5.7 16 16.3 ESE 13 19 7 10 1008.8 1006.6 0.0
04/07:30pm 36.9 32.5 5.0 14 17.4 SE 17 24 9 13 1008.6 1006.4 0.0
04/07:00pm 37.4 32.8 5.4 14 17.7 SE 19 26 10 14 1008.1 1005.9 0.0
04/06:30pm 38.2 33.1 6.0 14 18.0 SE 22 33 12 18 1007.9 1005.7 0.0
04/06:00pm 39.1 33.2 5.7 13 18.7 ESE 26 35 14 19 1007.6 1005.3 0.0
04/05:30pm 39.5 34.0 6.0 13 18.8 ESE 24 35 13 19 1007.5 1005.2 0.0
04/05:00pm 39.8 36.1 6.2 13 19.0 ESE 15 24 8 13 1007.3 1005.0 0.0
04/04:30pm 39.1 33.6 5.7 13 18.7 ESE 24 39 13 21 1007.5 1005.2 0.0
04/04:00pm 40.9 35.8 5.9 12 19.8 E 22 43 12 23 1007.6 1005.3 0.0
04/03:30pm 40.4 36.5 5.5 12 19.6 E 15 28 8 15 1008.0 1005.8 0.0
04/03:00pm 41.1 36.0 6.0 12 19.9 ESE 22 39 12 21 1008.3 1006.1 0.0
04/02:30pm 40.2 34.8 6.5 13 19.1 ESE 24 44 13 24 1008.8 1006.6 0.0
04/02:20pm 40.1 34.7 6.4 13 19.1 ESE 24 46 13 25 1008.9 1006.7 0.0
04/02:00pm 40.3 35.2 7.7 14 18.9 ENE 24 41 13 22 1009.5 1007.2 0.0
04/01:50pm 39.3 33.5 7.9 15 18.1 ENE 28 46 15 25 1009.7 1007.4 0.0
04/01:41pm 40.0 34.1 7.4 14 18.8 E 28 46 15 25 1009.7 1007.4 0.0
04/01:30pm 39.4 34.8 8.0 15 18.2 E 22 43 12 23 1010.0 1007.7 0.0
04/01:00pm 39.8 34.7 9.2 16 18.1 E 26 39 14 21 1010.7 1008.4 0.0
04/12:30pm 39.0 33.5 7.7 15 18.0 ESE 26 46 14 25 1011.3 1009.1 0.0
04/12:23pm 38.6 32.9 8.3 16 17.6 E 28 48 15 26 1011.5 1009.3 0.0
04/12:00pm 38.2 33.0 8.9 17 17.1 E 26 39 14 21 1011.7 1009.5 0.0
04/11:31am 38.6 32.3 7.4 15 17.8 ENE 30 50 16 27 1012.1 1009.9 0.0
04/11:30am 39.0 32.8 7.7 15 18.0 ENE 30 46 16 25 1012.1 1009.9 0.0
04/11:00am 37.8 33.4 11.7 21 15.8 ESE 26 52 14 28 1012.6 1010.4 0.0
04/10:52am 38.1 33.2 11.2 20 16.2 ESE 28 52 15 28 1012.7 1010.5 0.0
04/10:30am 37.4 33.5 12.1 22 15.4 E 24 39 13 21 1012.9 1010.7 0.0
04/10:00am 36.6 33.1 13.4 25 14.4 E 24 35 13 19 1013.2 1010.9 0.0
04/09:30am 35.8 32.3 13.3 26 13.9 ENE 24 33 13 18 1013.4 1011.1 0.0

Other formats

Comma delimited format used in spreadsheet applications
http://www.bom.gov.au/fwo/IDQ60801/IDQ60801.94336.axf

JavaScript Object Notation format (JSON) in row-major order
http://www.bom.gov.au/fwo/IDQ60801/IDQ60801.94336.json

Data quality

Most of these data are generated automatically and are frequently updated. Quality checks on data are not normally performed. It is possible for incorrect values to appear. Refer to information at About Latest Weather Observations and please check the disclaimer before using these data.